Time;durP1;ratioP1;P1;durP2;ratioP2;P2;SDS_P1;SDS_P2;PMS_P1;PMS_P2;Temp;Humidity;BMP_temperature;BMP_pressure;BME280_temperature;BME280_humidity;BME280_pressure;Samples;Min_cycle;Max_cycle;Signal;HPM_P1;HPM_P2
2022/06/27 00:02:00;;;;;;;10.18;9.28;;;;;;;19.37;70.98;100507.33;1734504;80;21110;-77
2022/06/27 00:04:28;;;;;;;11.12;8.73;;;;;;;19.35;71.00;100503.92;1753462;80;21488;-78
2022/06/27 00:06:55;;;;;;;10.25;9.23;;;;;;;19.32;71.12;100505.95;1772719;80;20993;-77
2022/06/27 00:09:22;;;;;;;11.53;9.65;;;;;;;19.30;71.15;100507.39;1738622;80;21066;-76
2022/06/27 00:11:50;;;;;;;10.70;9.60;;;;;;;19.29;71.30;100502.20;1731349;80;21046;-77
2022/06/27 00:14:17;;;;;;;11.08;9.25;;;;;;;19.29;71.45;100500.38;1751399;80;21008;-76
2022/06/27 00:16:45;;;;;;;10.00;9.00;;;;;;;19.30;71.59;100503.40;1760862;80;21006;-76
2022/06/27 00:19:12;;;;;;;10.58;8.75;;;;;;;19.29;71.54;100504.85;1741623;80;21031;-77
2022/06/27 00:21:39;;;;;;;10.18;8.85;;;;;;;19.24;71.42;100499.02;1730155;80;20988;-76
2022/06/27 00:24:07;;;;;;;11.30;9.08;;;;;;;19.19;71.49;100495.34;1736331;80;21025;-77
2022/06/27 00:26:34;;;;;;;10.50;9.35;;;;;;;19.19;71.63;100499.81;1746608;80;21564;-77
2022/06/27 00:29:01;;;;;;;9.45;8.55;;;;;;;19.19;71.68;100499.81;1729771;80;21002;-76
2022/06/27 00:31:29;;;;;;;9.75;8.85;;;;;;;19.15;71.63;100500.53;1744284;80;21001;-76
2022/06/27 00:33:57;;;;;;;10.65;8.75;;;;;;;19.10;71.67;100505.31;1738379;80;21791;-76
2022/06/27 00:36:24;;;;;;;11.55;9.33;;;;;;;19.07;71.96;100509.52;1729956;80;21035;-77
2022/06/27 00:38:52;;;;;;;9.93;9.03;;;;;;;19.04;71.92;100504.39;1730127;80;20996;-76
2022/06/27 00:41:20;;;;;;;9.83;8.95;;;;;;;19.01;72.15;100500.17;1730053;80;20980;-76
2022/06/27 00:43:47;;;;;;;10.80;9.60;;;;;;;19.02;72.27;100501.02;1738213;80;21038;-76
2022/06/27 00:46:15;;;;;;;10.10;8.53;;;;;;;18.97;72.34;100500.01;1774752;80;21115;-76
2022/06/27 00:48:42;;;;;;;9.48;8.55;;;;;;;18.92;72.42;100501.65;1762344;80;21562;-77
2022/06/27 00:51:10;;;;;;;10.13;9.13;;;;;;;18.88;72.54;100503.32;1753870;80;21034;-76
2022/06/27 00:53:39;;;;;;;11.68;9.50;;;;;;;18.83;72.61;100500.13;1770237;80;21055;-76
2022/06/27 00:56:06;;;;;;;10.88;9.78;;;;;;;18.78;72.74;100500.92;1741540;80;21098;-76
2022/06/27 00:58:34;;;;;;;12.18;9.20;;;;;;;18.75;73.11;100504.64;1741813;80;21084;-78
2022/06/27 01:01:01;;;;;;;10.98;9.40;;;;;;;18.72;73.22;100509.66;1741630;80;20987;-76
2022/06/27 01:03:29;;;;;;;10.38;9.33;;;;;;;18.70;73.45;100514.70;1753574;80;21026;-76
2022/06/27 01:05:58;;;;;;;10.32;9.43;;;;;;;18.68;73.51;100510.84;1784435;80;21033;-76
2022/06/27 01:08:25;;;;;;;10.68;9.68;;;;;;;18.65;73.62;100511.05;1746372;80;20995;-76
2022/06/27 01:10:54;;;;;;;11.53;10.08;;;;;;;18.61;73.78;100508.22;1741592;80;21116;-76
2022/06/27 01:13:22;;;;;;;10.65;9.65;;;;;;;18.60;73.82;100507.86;1775137;80;21029;-76
2022/06/27 01:15:50;;;;;;;10.85;9.85;;;;;;;18.59;73.99;100507.95;1741751;80;21002;-76
2022/06/27 01:18:18;;;;;;;10.00;9.10;;;;;;;18.57;74.00;100505.88;1763962;80;21579;-76
2022/06/27 01:20:47;;;;;;;10.25;9.15;;;;;;;18.54;73.85;100504.30;1771343;80;20939;-76
2022/06/27 01:23:14;;;;;;;10.45;9.45;;;;;;;18.48;73.91;100502.92;1755731;80;21602;-77
2022/06/27 01:25:42;;;;;;;10.88;9.73;;;;;;;18.46;74.06;100505.30;1752317;80;20961;-76
2022/06/27 01:28:11;;;;;;;10.80;9.30;;;;;;;18.43;74.20;100502.38;1774375;80;20994;-76
2022/06/27 01:30:38;;;;;;;10.58;9.53;;;;;;;18.39;74.19;100501.36;1788862;80;21530;-76
2022/06/27 01:33:06;;;;;;;9.18;8.38;;;;;;;18.34;74.16;100500.33;1788759;78;21229;-75
2022/06/27 01:35:35;;;;;;;11.48;8.68;;;;;;;18.28;73.83;100501.59;1781352;80;21067;-76
2022/06/27 01:38:04;;;;;;;9.10;8.18;;;;;;;18.22;73.68;100498.52;1734103;81;21051;-77
2022/06/27 01:40:32;;;;;;;9.33;8.38;;;;;;;18.17;73.66;100501.95;1754403;81;21025;-76
2022/06/27 01:43:01;;;;;;;9.43;8.53;;;;;;;18.09;73.63;100498.48;1735201;81;21083;-76
2022/06/27 01:45:29;;;;;;;8.78;7.97;;;;;;;18.03;73.67;100506.85;1729791;81;21019;-76
2022/06/27 01:47:57;;;;;;;8.65;7.85;;;;;;;17.98;73.73;100504.50;1782007;79;21196;-76
2022/06/27 01:50:28;;;;;;;9.33;8.43;;;;;;;17.94;73.93;100505.67;1739791;80;21287;-76
2022/06/27 01:52:57;;;;;;;8.53;7.73;;;;;;;17.93;74.10;100504.42;1725143;81;21009;-76
2022/06/27 01:55:24;;;;;;;10.57;8.63;;;;;;;17.90;74.11;100512.11;1697295;83;21020;-78
2022/06/27 01:57:52;;;;;;;9.48;8.10;;;;;;;17.87;74.07;100508.33;1736058;81;21452;-76
2022/06/27 02:00:19;;;;;;;10.38;8.05;;;;;;;17.83;74.10;100506.38;1708409;82;21159;-76
2022/06/27 02:02:59;;;;;;;11.70;8.73;;;;;;;17.80;74.08;100503.08;1728827;82;21577;-77
2022/06/27 02:05:28;;;;;;;9.43;8.48;;;;;;;17.78;74.39;100503.16;1750107;81;21056;-76
2022/06/27 02:07:57;;;;;;;8.33;7.62;;;;;;;17.78;74.28;100503.61;1716229;82;21486;-76
2022/06/27 02:10:24;;;;;;;9.20;8.30;;;;;;;17.74;74.31;100501.65;1784088;80;21423;-76
2022/06/27 02:12:52;;;;;;;10.00;8.38;;;;;;;17.72;74.41;100500.89;1764871;80;21121;-76
2022/06/27 02:15:19;;;;;;;9.03;8.23;;;;;;;17.71;74.39;100506.28;1754223;80;21460;-76
2022/06/27 02:17:46;;;;;;;9.80;8.23;;;;;;;17.72;74.49;100510.65;1772326;80;21071;-76
2022/06/27 02:20:15;;;;;;;10.40;8.60;;;;;;;17.69;74.48;100498.44;1752967;81;21487;-76
2022/06/27 02:22:42;;;;;;;9.93;8.95;;;;;;;17.68;74.65;100505.16;1762735;80;21094;-76
2022/06/27 02:25:10;;;;;;;10.15;9.25;;;;;;;17.67;74.75;100510.94;1737413;80;21925;-77
2022/06/27 02:27:38;;;;;;;10.82;9.73;;;;;;;17.68;74.82;100511.33;1745109;80;21480;-76
2022/06/27 02:30:08;;;;;;;11.38;10.05;;;;;;;17.65;74.84;100504.03;1754098;80;21110;-76
2022/06/27 02:32:35;;;;;;;12.25;10.35;;;;;;;17.60;74.92;100511.82;1737186;80;21007;-76
2022/06/27 02:35:03;;;;;;;10.50;9.38;;;;;;;17.58;75.17;100511.06;1737480;80;21086;-76
2022/06/27 02:37:32;;;;;;;11.65;10.55;;;;;;;17.56;75.32;100507.65;1778708;80;21800;-77
2022/06/27 02:40:00;;;;;;;10.83;9.73;;;;;;;17.55;75.48;100511.73;1778980;80;20998;-76
2022/06/27 02:42:29;;;;;;;10.50;9.43;;;;;;;17.52;75.54;100509.30;1781962;80;20982;-76
2022/06/27 02:44:57;;;;;;;10.25;9.35;;;;;;;17.48;75.41;100505.97;1788221;78;21005;-76
2022/06/27 02:47:26;;;;;;;10.88;9.85;;;;;;;17.45;75.42;100517.24;1783466;78;21028;-76
2022/06/27 02:49:53;;;;;;;11.30;10.20;;;;;;;17.41;75.41;100515.27;1788975;78;21219;-75
2022/06/27 02:52:37;;;;;;;10.98;9.88;;;;;;;17.36;75.57;100516.03;1788967;80;21072;-77
2022/06/27 02:55:17;;;;;;;11.75;9.43;;;;;;;17.33;75.72;100517.08;1785558;78;21012;-76
2022/06/27 02:57:53;;;;;;;8.83;8.08;;;;;;;17.30;75.73;100525.70;1786957;78;21025;-75
2022/06/27 03:00:22;;;;;;;8.80;7.97;;;;;;;17.27;75.73;100526.75;1745442;81;21079;-76
2022/06/27 03:02:50;;;;;;;11.10;8.45;;;;;;;17.27;75.82;100529.88;1754600;81;21167;-76
2022/06/27 03:05:36;;;;;;;9.20;8.33;;;;;;;17.26;75.88;100529.47;1730092;81;21519;-76
2022/06/27 03:08:04;;;;;;;9.28;8.38;;;;;;;17.30;76.20;100527.03;1735136;81;20939;-76
2022/06/27 03:10:32;;;;;;;8.75;7.95;;;;;;;17.35;76.19;100530.23;1733942;81;21044;-77
2022/06/27 03:12:59;;;;;;;8.55;7.85;;;;;;;17.37;76.16;100530.97;1736664;81;21270;-76
2022/06/27 03:15:26;;;;;;;8.95;7.78;;;;;;;17.36;76.12;100529.28;1754619;81;21181;-76
2022/06/27 03:17:55;;;;;;;10.63;8.23;;;;;;;17.37;76.12;100532.30;1754141;81;21068;-76
2022/06/27 03:20:29;;;;;;;10.88;8.75;;;;;;;17.38;76.30;100527.39;1754294;80;21040;-77
2022/06/27 03:22:57;;;;;;;9.78;8.75;;;;;;;17.41;76.61;100524.55;1727543;81;21053;-75
2022/06/27 03:25:25;;;;;;;9.95;8.73;;;;;;;17.46;76.70;100521.59;1732189;82;21074;-75
2022/06/27 03:27:52;;;;;;;11.10;10.10;;;;;;;17.49;76.78;100528.05;1726109;82;21135;-75
2022/06/27 03:30:20;;;;;;;10.98;9.93;;;;;;;17.49;76.94;100524.91;1739307;81;21031;-75
2022/06/27 03:32:48;;;;;;;11.00;10.00;;;;;;;17.55;77.11;100528.97;1737040;82;21464;-75
2022/06/27 03:35:17;;;;;;;10.98;9.98;;;;;;;17.57;77.18;100525.72;1729905;81;21138;-75
2022/06/27 03:37:44;;;;;;;11.55;10.40;;;;;;;17.60;77.30;100527.72;1738250;81;21575;-75
2022/06/27 03:40:12;;;;;;;10.93;9.83;;;;;;;17.67;77.47;100533.95;1737442;82;21118;-75
2022/06/27 03:42:41;;;;;;;11.15;9.93;;;;;;;17.72;77.46;100535.35;1740789;81;21018;-75
2022/06/27 03:45:10;;;;;;;12.70;10.50;;;;;;;17.78;77.64;100542.05;1731171;81;21581;-75
2022/06/27 03:47:54;;;;;;;;;;;;;;;17.83;77.78;100541.32;1732340;82;21069;-75
2022/06/27 03:50:26;;;;;;;11.00;10.00;;;;;;;17.90;78.24;100542.60;1770672;80;21266;-75
2022/06/27 03:52:55;;;;;;;10.93;9.85;;;;;;;17.95;77.85;100547.62;1757254;80;21116;-75
2022/06/27 03:55:24;;;;;;;10.98;9.73;;;;;;;18.00;77.88;100543.71;1761162;80;20945;-75
2022/06/27 03:57:59;;;;;;;10.33;9.30;;;;;;;18.06;77.72;100550.41;1770840;80;21622;-76
2022/06/27 04:00:32;;;;;;;9.93;9.03;;;;;;;18.14;77.67;100545.94;1757246;80;21307;-75
2022/06/27 04:02:59;;;;;;;10.10;9.05;;;;;;;18.21;77.58;100546.76;1757128;80;21030;-76
2022/06/27 04:05:34;;;;;;;12.47;8.63;;;;;;;18.29;77.49;100542.27;1765063;80;21119;-75
2022/06/27 04:08:02;;;;;;;10.80;9.05;;;;;;;18.36;77.32;100544.03;1759911;80;21066;-75
2022/06/27 04:10:31;;;;;;;12.20;8.63;;;;;;;18.41;77.27;100550.72;1761540;80;21019;-78
2022/06/27 04:12:58;;;;;;;8.20;7.28;;;;;;;18.46;76.89;100559.23;1769572;80;21026;-77
2022/06/27 04:15:37;;;;;;;9.08;7.80;;;;;;;18.53;76.72;100555.67;1771608;80;21093;-77
2022/06/27 04:18:23;;;;;;;8.80;7.17;;;;;;;18.58;76.37;100556.22;1772504;80;21085;-76
2022/06/27 04:21:08;;;;;;;8.30;7.47;;;;;;;18.66;76.23;100550.39;1771144;80;21053;-79
2022/06/27 04:23:37;;;;;;;8.60;7.80;;;;;;;18.73;76.12;100552.53;1772552;80;21525;-76
2022/06/27 04:26:13;;;;;;;10.08;7.47;;;;;;;18.84;76.30;100558.43;1773110;80;21026;-79
2022/06/27 04:28:40;;;;;;;9.60;7.87;;;;;;;18.94;76.20;100558.17;1773317;80;21265;-75
2022/06/27 04:31:10;;;;;;;10.60;7.53;;;;;;;19.06;76.35;100548.49;1771895;80;21302;-78
2022/06/27 04:33:37;;;;;;;9.95;7.95;;;;;;;19.16;76.38;100548.71;1773395;80;21030;-79
2022/06/27 04:36:07;;;;;;;8.38;7.17;;;;;;;19.27;76.35;100550.61;1773246;80;20979;-77
2022/06/27 04:38:36;;;;;;;8.25;7.53;;;;;;;19.38;76.25;100550.70;1757226;80;21088;-75
2022/06/27 04:41:26;;;;;;;10.08;7.75;;;;;;;19.47;76.23;100547.86;1765682;80;21011;-78
2022/06/27 04:43:53;;;;;;;8.90;8.00;;;;;;;19.58;76.11;100549.26;1771556;79;21110;-76
2022/06/27 04:46:21;;;;;;;8.25;7.45;;;;;;;19.66;76.02;100549.58;1780963;80;21010;-75
2022/06/27 04:48:48;;;;;;;8.05;7.30;;;;;;;19.72;75.67;100546.47;1776780;80;21516;-76
2022/06/27 04:51:16;;;;;;;7.85;7.05;;;;;;;19.78;75.06;100547.83;1781037;80;21034;-79
2022/06/27 04:53:44;;;;;;;12.60;6.55;;;;;;;19.85;74.54;100545.11;1772369;80;21499;-77
2022/06/27 04:56:12;;;;;;;7.03;6.20;;;;;;;19.92;74.06;100546.81;1780628;80;21109;-75
2022/06/27 04:58:40;;;;;;;7.22;6.00;;;;;;;20.01;73.78;100544.83;1781192;80;20982;-75
2022/06/27 05:01:07;;;;;;;8.35;6.62;;;;;;;20.13;73.61;100541.24;1776250;80;21437;-79
2022/06/27 05:03:40;;;;;;;6.92;5.97;;;;;;;20.23;73.21;100541.38;1769271;80;21066;-76
2022/06/27 05:06:09;;;;;;;6.97;6.27;;;;;;;20.33;72.84;100545.06;1772591;80;21081;-76
2022/06/27 05:08:38;;;;;;;9.10;6.47;;;;;;;20.45;72.72;100555.25;1771657;80;21292;-76
2022/06/27 05:11:06;;;;;;;7.05;6.35;;;;;;;20.56;72.49;100549.98;1771710;80;21065;-76
2022/06/27 05:13:34;;;;;;;8.78;6.50;;;;;;;20.64;72.11;100547.59;1780140;80;21034;-77
2022/06/27 05:16:04;;;;;;;7.25;6.53;;;;;;;20.73;71.82;100550.05;1777305;80;20957;-77
2022/06/27 05:18:34;;;;;;;7.55;6.28;;;;;;;20.81;71.57;100553.43;1780888;80;20991;-78
2022/06/27 05:21:01;;;;;;;9.40;7.03;;;;;;;20.89;71.33;100552.35;1778342;80;21114;-81
2022/06/27 05:23:29;;;;;;;8.13;7.37;;;;;;;20.99;71.28;100558.67;1754603;80;20937;-77
2022/06/27 05:25:56;;;;;;;7.55;6.83;;;;;;;21.09;71.15;100548.13;1781223;80;21637;-75
2022/06/27 05:28:23;;;;;;;8.95;6.85;;;;;;;21.17;71.07;100543.03;1775968;80;21469;-77
2022/06/27 05:30:51;;;;;;;7.47;6.72;;;;;;;21.28;70.90;100551.52;1759046;80;21291;-75
2022/06/27 05:33:18;;;;;;;7.90;7.10;;;;;;;21.38;70.67;100549.86;1781544;80;21101;-77
2022/06/27 05:35:45;;;;;;;7.95;6.78;;;;;;;21.46;70.37;100555.92;1781077;80;20937;-76
2022/06/27 05:38:12;;;;;;;9.25;6.90;;;;;;;21.53;70.18;100551.30;1781450;80;21045;-78
2022/06/27 05:40:40;;;;;;;10.15;6.72;;;;;;;21.63;70.06;100552.73;1749958;80;21476;-79
2022/06/27 05:43:08;;;;;;;8.10;6.85;;;;;;;21.72;69.80;100547.97;1737283;80;21542;-75
2022/06/27 05:45:35;;;;;;;6.97;6.22;;;;;;;21.81;69.62;100544.57;1731614;81;21237;-76
2022/06/27 05:48:07;;;;;;;8.68;6.90;;;;;;;21.89;69.43;100540.41;1683477;80;21473;-77
2022/06/27 05:50:36;;;;;;;9.05;6.90;;;;;;;22.00;69.04;100547.04;1742143;81;20984;-78
2022/06/27 05:53:04;;;;;;;7.83;7.05;;;;;;;22.08;68.85;100545.92;1748269;81;21584;-76
2022/06/27 05:55:33;;;;;;;8.90;6.30;;;;;;;22.18;68.93;100545.55;1742897;81;21078;-77
2022/06/27 05:58:02;;;;;;;7.13;6.53;;;;;;;22.30;68.68;100549.02;1745313;80;21119;-76
2022/06/27 06:00:30;;;;;;;8.28;6.28;;;;;;;22.40;68.28;100545.09;1730321;80;20967;-75
2022/06/27 06:02:58;;;;;;;9.18;6.00;;;;;;;22.50;68.04;100539.31;1730028;81;21022;-75
2022/06/27 06:05:28;;;;;;;8.03;5.83;;;;;;;22.62;67.66;100541.45;1738184;81;21451;-77
2022/06/27 06:08:04;;;;;;;;;;;;;;;22.70;67.43;100545.16;1775594;80;20994;-75
2022/06/27 06:10:35;;;;;;;8.23;6.37;;;;;;;22.79;67.19;100543.52;1773379;80;21108;-76
2022/06/27 06:13:04;;;;;;;8.08;6.08;;;;;;;22.91;67.15;100541.59;1773210;80;20998;-76
2022/06/27 06:15:33;;;;;;;7.90;5.72;;;;;;;23.04;66.79;100540.09;1773457;80;21547;-76
2022/06/27 06:18:01;;;;;;;8.63;6.12;;;;;;;23.18;66.51;100532.20;1773492;80;21038;-77
2022/06/27 06:20:29;;;;;;;6.75;6.05;;;;;;;23.30;66.07;100531.09;1773324;80;21034;-76
2022/06/27 06:22:57;;;;;;;8.15;5.80;;;;;;;23.42;65.73;100534.50;1758843;80;21171;-75
2022/06/27 06:25:24;;;;;;;6.87;5.55;;;;;;;23.57;65.34;100538.50;1761813;80;21537;-76
2022/06/27 06:27:56;;;;;;;9.50;5.55;;;;;;;23.66;64.78;100536.33;1764900;80;21485;-76
2022/06/27 06:30:21;;;;;;;7.37;5.20;;;;;;;23.78;64.39;100541.97;1762115;80;21473;-77
2022/06/27 06:32:50;;;;;;;8.38;5.50;;;;;;;23.91;63.94;100536.83;1768602;80;21089;-78
2022/06/27 06:35:18;;;;;;;9.23;5.10;;;;;;;24.04;63.62;100544.94;1772940;80;21093;-76
2022/06/27 06:37:47;;;;;;;11.35;8.40;;;;;;;24.15;63.29;100550.65;1772409;80;20985;-79
2022/06/27 06:40:19;;;;;;;16.42;14.73;;;;;;;24.24;62.88;100549.79;1767796;80;21111;-85
2022/06/27 06:42:45;;;;;;;;;;;;;;;24.37;62.63;100544.66;1769969;80;22172;-78
2022/06/27 06:45:24;;;;;;;11.88;10.68;;;;;;;24.48;61.90;100541.35;1776633;79;21451;-77
2022/06/27 06:47:56;;;;;;;13.72;11.03;;;;;;;24.60;61.97;100539.35;1777672;80;21808;-89
2022/06/27 06:50:25;;;;;;;9.05;7.10;;;;;;;24.76;61.70;100551.32;1767208;78;21057;-90
2022/06/27 06:52:54;;;;;;;6.78;6.08;;;;;;;24.86;61.19;100550.31;1774509;78;21532;-82
2022/06/27 06:55:24;;;;;;;7.30;5.72;;;;;;;24.95;60.73;100541.04;1765017;78;21549;-78
2022/06/27 06:57:52;;;;;;;7.15;5.50;;;;;;;25.06;60.39;100543.03;1745877;78;21025;-77
2022/06/27 07:00:20;;;;;;;6.65;5.40;;;;;;;25.21;60.21;100537.22;1772676;80;21127;-76
2022/06/27 07:02:48;;;;;;;7.70;5.43;;;;;;;25.34;59.86;100541.25;1778523;78;21460;-77
2022/06/27 07:05:16;;;;;;;7.90;5.20;;;;;;;25.44;59.22;100537.66;1788575;80;21981;-78
2022/06/27 07:07:44;;;;;;;7.72;5.95;;;;;;;25.57;59.15;100542.17;1787207;78;20986;-77
2022/06/27 07:10:13;;;;;;;8.48;5.22;;;;;;;25.67;58.84;100542.13;1767106;80;21126;-77
2022/06/27 07:12:41;;;;;;;6.28;4.83;;;;;;;25.85;58.48;100541.66;1781014;78;21181;-78
2022/06/27 07:15:12;;;;;;;6.62;5.12;;;;;;;25.97;58.11;100535.59;1781350;80;21021;-78
2022/06/27 07:17:49;;;;;;;9.28;5.00;;;;;;;26.09;57.87;100532.17;1788542;80;21548;-78
2022/06/27 07:20:20;;;;;;;6.03;5.10;;;;;;;26.20;57.39;100534.11;1788675;80;21006;-78
2022/06/27 07:22:50;;;;;;;8.48;5.08;;;;;;;26.34;57.21;100529.19;1788627;80;21038;-78
2022/06/27 07:25:17;;;;;;;;;;;;;;;26.43;56.66;100526.39;1758110;78;21113;-79
2022/06/27 07:27:46;;;;;;;6.20;4.60;;;;;;;26.52;56.16;100525.14;1786385;78;20218;-79
2022/06/27 07:30:14;;;;;;;;;;;;;;;26.65;56.12;100525.06;1788631;78;20990;-79
2022/06/27 07:32:49;;;;;;;5.50;4.90;;;;;;;26.75;55.71;100525.48;1733127;81;20148;-81
2022/06/27 07:35:19;;;;;;;6.70;4.42;;;;;;;26.83;55.63;100531.75;1723221;81;21072;-77
2022/06/27 07:37:48;;;;;;;8.53;4.55;;;;;;;26.93;55.38;100528.94;1712429;81;21132;-82
2022/06/27 07:40:17;;;;;;;;;;;;;;;27.00;55.04;100531.84;1733891;81;21107;-79
2022/06/27 07:42:45;;;;;;;10.10;4.50;;;;;;;27.08;54.61;100528.69;1731884;82;20192;-80
2022/06/27 07:45:15;;;;;;;9.58;4.50;;;;;;;27.19;54.84;100527.59;1752367;81;21033;-81
2022/06/27 07:47:49;;;;;;;;;;;;;;;27.34;54.72;100527.81;1738867;82;21003;-81
2022/06/27 07:51:00;;;;;;;7.55;4.53;;;;;;;27.53;54.10;100531.58;1721190;82;21834;-79
2022/06/27 07:55:30;;;;;;;10.40;5.10;;;;;;;27.79;53.86;100520.72;1742355;80;21592;-80
2022/06/27 07:57:58;;;;;;;5.80;3.87;;;;;;;27.96;53.16;100516.22;1737072;80;21054;-81
2022/06/27 08:00:25;;;;;;;5.55;3.37;;;;;;;28.09;52.38;100518.91;1740446;80;21058;-80
2022/06/27 08:02:52;;;;;;;4.45;3.37;;;;;;;28.16;51.63;100523.98;1758574;80;21081;-79
2022/06/27 08:05:20;;;;;;;6.65;3.30;;;;;;;28.20;50.80;100530.70;1736813;80;21051;-78
2022/06/27 08:07:49;;;;;;;3.95;2.92;;;;;;;28.29;50.45;100527.50;1736942;80;21050;-78
2022/06/27 08:10:16;;;;;;;5.62;3.30;;;;;;;28.40;50.35;100523.11;1761081;80;21037;-79
2022/06/27 08:12:44;;;;;;;4.22;3.40;;;;;;;28.59;49.83;100526.83;1738113;80;21319;-81
2022/06/27 08:15:11;;;;;;;3.72;2.98;;;;;;;28.79;49.62;100517.84;1745992;80;21189;-81
2022/06/27 08:17:38;;;;;;;5.65;3.30;;;;;;;28.95;48.91;100531.80;1771100;80;21542;-79
2022/06/27 08:20:07;;;;;;;5.83;3.40;;;;;;;29.05;48.53;100521.69;1755319;80;20980;-78
2022/06/27 08:22:35;;;;;;;6.60;3.30;;;;;;;29.21;48.20;100519.92;1737088;80;21019;-79
2022/06/27 08:25:05;;;;;;;6.37;3.05;;;;;;;29.36;47.60;100514.13;1737040;80;21670;-81
2022/06/27 08:27:37;;;;;;;4.72;3.10;;;;;;;29.47;46.85;100518.30;1736934;80;21040;-80
2022/06/27 08:30:06;;;;;;;4.00;2.40;;;;;;;29.50;46.11;100510.68;1737085;80;21047;-78
2022/06/27 08:32:33;;;;;;;4.20;2.73;;;;;;;29.55;45.95;100512.34;1737297;80;21050;-79
2022/06/27 08:35:01;;;;;;;4.35;3.22;;;;;;;29.70;46.12;100513.80;1737297;80;21058;-81
2022/06/27 08:37:28;;;;;;;3.30;2.62;;;;;;;29.86;45.75;100509.31;1777740;79;21480;-81
2022/06/27 08:39:57;;;;;;;4.00;3.33;;;;;;;30.00;45.35;100507.17;1778640;79;21215;-78
2022/06/27 08:42:24;;;;;;;5.62;2.98;;;;;;;30.14;44.98;100507.73;1745978;80;21013;-80
2022/06/27 08:44:52;;;;;;;5.28;3.00;;;;;;;30.28;44.75;100515.58;1749778;80;21503;-80
2022/06/27 08:47:21;;;;;;;4.83;2.67;;;;;;;30.42;44.32;100515.28;1727493;81;21005;-78
2022/06/27 08:49:52;;;;;;;5.50;2.87;;;;;;;30.55;43.88;100522.27;1693392;83;21104;-78
2022/06/27 08:52:18;;;;;;;3.58;2.55;;;;;;;30.65;43.36;100515.22;1736210;82;21301;-80
2022/06/27 08:54:47;;;;;;;3.70;2.72;;;;;;;30.71;42.98;100514.50;1750101;82;21476;-80
2022/06/27 08:57:14;;;;;;;4.35;2.60;;;;;;;30.84;42.36;100511.16;1729637;81;21115;-77
2022/06/27 08:59:41;;;;;;;5.08;2.50;;;;;;;30.96;42.06;100509.69;1727471;82;21528;-81
2022/06/27 09:02:09;;;;;;;3.22;2.75;;;;;;;31.05;41.35;100504.49;1729809;81;21549;-78
2022/06/27 09:05:02;;;;;;;3.47;2.30;;;;;;;31.15;41.05;100504.22;1776878;79;21091;-79
2022/06/27 09:07:48;;;;;;;5.22;2.60;;;;;;;31.25;40.57;100496.61;1740826;80;20895;-80
2022/06/27 09:10:30;;;;;;;2.75;2.47;;;;;;;31.36;40.12;100503.94;1783745;79;20991;-80
2022/06/27 09:13:02;;;;;;;2.77;2.42;;;;;;;31.41;39.61;100501.53;1776885;79;20987;-78
2022/06/27 09:15:52;;;;;;;3.45;2.70;;;;;;;31.47;39.46;100500.24;1778708;79;21072;-78
2022/06/27 09:18:37;;;;;;;4.53;2.67;;;;;;;31.60;39.18;100499.56;1747927;80;21495;-78
2022/06/27 09:21:11;;;;;;;3.98;2.60;;;;;;;31.69;38.58;100490.80;1736372;82;21062;-79
2022/06/27 09:23:55;;;;;;;5.58;2.65;;;;;;;31.76;38.41;100491.19;1720320;83;21024;-79
2022/06/27 09:26:31;;;;;;;6.00;2.50;;;;;;;31.87;38.34;100488.48;1736479;82;21073;-79
2022/06/27 09:29:08;;;;;;;3.67;2.47;;;;;;;32.00;37.96;100489.13;1750008;82;21487;-80
2022/06/27 09:31:42;;;;;;;4.12;2.77;;;;;;;32.08;37.65;100480.87;1749792;82;21123;-79
2022/06/27 09:34:20;;;;;;;2.80;2.30;;;;;;;32.17;37.33;100481.03;1749930;82;21003;-78
2022/06/27 09:37:01;;;;;;;5.60;2.47;;;;;;;32.28;37.27;100480.19;1749594;80;21534;-78
2022/06/27 09:39:40;;;;;;;2.87;2.42;;;;;;;32.41;37.11;100478.94;1733229;81;21001;-78
2022/06/27 09:42:13;;;;;;;3.98;2.67;;;;;;;32.50;36.89;100468.27;1712483;83;21500;-78
2022/06/27 09:44:44;;;;;;;4.87;2.72;;;;;;;32.59;36.67;100467.59;1730078;83;21947;-78
2022/06/27 09:47:18;;;;;;;4.28;2.50;;;;;;;32.68;36.26;100472.38;1735206;81;21032;-78
2022/06/27 09:49:50;;;;;;;3.62;2.52;;;;;;;32.77;35.77;100464.37;1725899;81;21478;-78
2022/06/27 09:52:23;;;;;;;4.60;3.10;;;;;;;32.82;35.53;100467.33;1736452;82;21480;-80
2022/06/27 09:54:54;;;;;;;3.62;2.60;;;;;;;32.88;35.39;100460.56;1724170;83;21062;-78
2022/06/27 09:57:22;;;;;;;3.00;2.65;;;;;;;32.97;35.40;100459.03;1736470;82;21176;-79
2022/06/27 09:59:51;;;;;;;8.75;2.60;;;;;;;33.01;34.80;100442.18;1724554;83;20993;-81
2022/06/27 10:02:21;;;;;;;4.72;2.65;;;;;;;33.07;34.77;100437.81;1729593;81;21040;-78
2022/06/27 10:04:51;;;;;;;5.45;2.55;;;;;;;33.16;34.51;100434.39;1736120;82;21097;-78
2022/06/27 10:07:21;;;;;;;5.03;2.60;;;;;;;33.25;34.33;100435.88;1754522;81;21043;-79
2022/06/27 10:09:54;;;;;;;5.20;2.80;;;;;;;33.31;33.94;100428.26;1726192;81;21108;-78
2022/06/27 10:12:31;;;;;;;3.15;2.42;;;;;;;33.31;33.77;100435.05;1731387;82;21501;-78
2022/06/27 10:15:13;;;;;;;5.95;2.67;;;;;;;33.42;33.48;100425.47;1736899;81;21100;-79
2022/06/27 10:17:51;;;;;;;5.58;3.02;;;;;;;33.47;33.49;100427.88;1682049;83;21077;-81
2022/06/27 10:20:32;;;;;;;3.80;2.47;;;;;;;33.66;33.39;100426.27;1684172;83;21088;-81
2022/06/27 10:23:25;;;;;;;3.85;2.30;;;;;;;33.80;33.04;100418.12;1684179;84;21743;-80
2022/06/27 10:25:52;;;;;;;;;;;;;;;33.89;33.11;100414.98;1685512;84;21081;-80
2022/06/27 10:28:22;;;;;;;4.55;2.80;;;;;;;34.03;32.50;100413.09;1684216;84;20401;-78
2022/06/27 10:30:54;;;;;;;5.58;2.60;;;;;;;34.11;32.61;100408.00;1683867;84;21039;-80
2022/06/27 10:33:29;;;;;;;4.12;2.40;;;;;;;34.16;32.51;100412.28;1684091;84;21142;-78
2022/06/27 10:36:16;;;;;;;4.22;2.30;;;;;;;34.31;32.37;100403.88;1686773;84;21122;-81
2022/06/27 10:38:48;;;;;;;4.45;2.70;;;;;;;34.41;31.91;100401.03;1687589;84;21516;-78
2022/06/27 10:41:24;;;;;;;4.28;2.60;;;;;;;34.60;31.71;100407.50;1672755;84;21081;-80
2022/06/27 10:43:54;;;;;;;3.80;2.50;;;;;;;34.78;31.45;100413.63;1684006;84;21053;-81
2022/06/27 10:46:27;;;;;;;3.62;2.55;;;;;;;34.97;31.37;100400.95;1683746;84;21032;-78
2022/06/27 10:48:56;;;;;;;7.92;2.65;;;;;;;35.23;31.18;100395.94;1669388;86;21128;-80
2022/06/27 10:51:27;;;;;;;3.80;2.25;;;;;;;35.56;31.14;100396.28;1688116;84;21027;-78
2022/06/27 10:54:13;;;;;;;4.40;2.30;;;;;;;35.92;30.73;100396.09;1714753;82;21124;-82
2022/06/27 10:56:55;;;;;;;3.42;2.50;;;;;;;36.17;30.23;100394.19;1737550;82;21030;-80
2022/06/27 10:59:28;;;;;;;2.65;2.30;;;;;;;36.43;29.79;100387.30;1737168;82;21080;-81
2022/06/27 11:02:00;;;;;;;2.85;2.17;;;;;;;36.58;29.51;100390.00;1737424;82;21096;-81
2022/06/27 11:04:37;;;;;;;4.33;2.50;;;;;;;36.69;29.06;100379.34;1737221;82;20978;-80
2022/06/27 11:07:08;;;;;;;4.28;2.50;;;;;;;36.80;28.96;100385.40;1737290;82;21534;-81
2022/06/27 11:09:38;;;;;;;3.90;2.20;;;;;;;36.92;28.88;100382.21;1737362;82;21041;-80
2022/06/27 11:12:07;;;;;;;2.87;2.60;;;;;;;37.13;28.59;100381.42;1737459;82;21246;-80
2022/06/27 11:14:57;;;;;;;3.45;2.27;;;;;;;37.21;27.95;100381.09;1737171;82;21123;-81
2022/06/27 11:17:42;;;;;;;3.75;2.25;;;;;;;37.34;27.94;100371.33;1737063;82;21037;-80
2022/06/27 11:20:21;;;;;;;3.45;2.30;;;;;;;37.50;27.79;100367.13;1736768;82;21052;-80
2022/06/27 11:22:58;;;;;;;4.42;2.30;;;;;;;37.58;27.78;100365.41;1722290;82;21077;-79
2022/06/27 11:25:27;;;;;;;3.65;2.58;;;;;;;37.69;27.46;100378.27;1723104;83;21055;-82
2022/06/27 11:33:28;;;;;;;4.22;2.30;;;;;;;37.91;27.08;100364.84;1710302;83;21509;-78
2022/06/27 11:35:56;;;;;;;3.98;2.15;;;;;;;37.97;26.87;100362.23;1717695;83;21634;-82
2022/06/27 11:38:34;;;;;;;2.98;2.50;;;;;;;37.99;27.05;100355.98;1723396;81;21493;-80
2022/06/27 11:41:17;;;;;;;2.50;2.27;;;;;;;38.06;26.73;100369.85;1722099;81;21886;-77
2022/06/27 11:43:58;;;;;;;3.90;2.10;;;;;;;38.21;26.72;100367.16;1712075;81;21033;-78
2022/06/27 11:46:39;;;;;;;2.65;2.15;;;;;;;38.26;26.20;100363.99;1701966;82;21060;-76
2022/06/27 11:49:11;;;;;;;4.10;2.62;;;;;;;38.37;25.85;100362.31;1698081;82;21052;-80